createdAt,value
2019-04-14T00:03:35.380Z,19.700001
2019-04-14T00:08:58.581Z,19.6
2019-04-14T00:14:20.893Z,19
2019-04-14T00:19:43.595Z,18.6
2019-04-14T00:25:06.933Z,19.4
2019-04-14T00:30:29.612Z,18.799999
2019-04-14T00:35:52.396Z,18.9
2019-04-14T00:41:15.893Z,19.9
2019-04-14T00:46:38.790Z,19.1
2019-04-14T00:52:01.606Z,18.9
2019-04-14T00:57:24.708Z,19.200001
2019-04-14T01:02:47.310Z,19.4
2019-04-14T01:08:10.076Z,19.4
2019-04-14T01:13:33.261Z,18.9
2019-04-14T01:18:55.876Z,18.1
2019-04-14T01:24:18.592Z,17.799999
2019-04-14T01:29:41.152Z,18.4
2019-04-14T01:35:03.831Z,18.9
2019-04-14T01:40:27.072Z,18.1
2019-04-14T01:46:01.351Z,19
2019-04-14T01:51:13.503Z,19.6
2019-04-14T01:56:36.277Z,18.9
2019-04-14T02:01:58.676Z,19.1
2019-04-14T02:07:21.243Z,19.4
2019-04-14T02:12:45.217Z,19.4
2019-04-14T02:18:07.853Z,21.1
2019-04-14T02:23:30.352Z,20.9
2019-04-14T02:28:54.979Z,19.700001
2019-04-14T02:34:54.787Z,15.6
2019-04-14T02:40:07.469Z,19.700001
2019-04-14T02:45:34.648Z,20.1
2019-04-14T02:50:55.020Z,20.299999
2019-04-14T02:56:21.151Z,18.299999
2019-04-14T03:07:04.517Z,19.1
2019-04-14T03:17:59.927Z,14.8
2019-04-14T03:23:23.167Z,19.799999
2019-04-14T03:28:37.639Z,20.9
2019-04-14T03:39:30.853Z,19.1
2019-04-14T03:44:48.430Z,20.200001
2019-04-14T03:50:13.322Z,21.299999
2019-04-14T03:55:24.758Z,20
2019-04-14T04:00:38.428Z,20.9
2019-04-14T04:06:03.066Z,21.700001
2019-04-14T04:11:25.822Z,18.799999
2019-04-14T04:16:48.392Z,21.700001
2019-04-14T04:22:10.939Z,21
2019-04-14T04:27:35.193Z,21.200001
2019-04-14T04:32:57.931Z,21.6
2019-04-14T04:38:20.549Z,22.700001
2019-04-14T04:43:43.301Z,20.5
2019-04-14T04:49:14.078Z,19.9
2019-04-14T04:54:32.072Z,20.200001
2019-04-14T04:59:54.122Z,19.200001
2019-04-14T05:05:16.806Z,20.6
2019-04-14T05:10:41.383Z,20.200001
2019-04-14T05:16:04.273Z,19.799999
2019-04-14T05:21:27.720Z,20.6
2019-04-14T05:26:50.565Z,19.799999
2019-04-14T05:32:15.217Z,20.700001
2019-04-14T05:37:37.941Z,18.9
2019-04-14T05:43:01.018Z,18.700001
2019-04-14T05:48:23.579Z,18
2019-04-14T05:53:46.259Z,15.9
2019-04-14T05:59:08.965Z,17.4
2019-04-14T06:04:33.103Z,19.299999
2019-04-14T06:09:55.992Z,16.6
2019-04-14T06:15:18.928Z,17.1
2019-04-14T06:20:41.942Z,15.2
2019-04-14T06:26:04.916Z,13.2
2019-04-14T06:31:31.249Z,14.4
2019-04-14T06:36:53.942Z,15.5
2019-04-14T06:42:16.677Z,13.3
2019-04-14T06:47:39.930Z,15.7
2019-04-14T06:53:03.418Z,16
2019-04-14T06:58:26.098Z,16.200001
2019-04-14T07:03:49.072Z,14.7
2019-04-14T07:09:11.883Z,14.1
2019-04-14T07:14:34.570Z,14.6
2019-04-14T07:20:02.078Z,13.3
2019-04-14T07:25:21.609Z,12.8
2019-04-14T07:30:44.607Z,12.4
2019-04-14T07:36:07.399Z,12.6
2019-04-14T07:41:30.039Z,12.8
2019-04-14T07:46:52.765Z,11.6
2019-04-14T07:52:15.475Z,11.8
2019-04-14T07:57:38.425Z,11.1
2019-04-14T08:03:03.139Z,11.6
2019-04-14T08:08:25.896Z,11.4
2019-04-14T08:13:48.608Z,11.4
2019-04-14T08:19:11.455Z,12.5
2019-04-14T08:24:34.120Z,12.2
2019-04-14T08:29:56.924Z,11.9
2019-04-14T08:35:19.821Z,12
2019-04-14T08:40:42.609Z,12
2019-04-14T08:46:05.258Z,12.1
2019-04-14T08:51:27.921Z,12.3
2019-04-14T08:56:51.332Z,12.6
2019-04-14T09:02:13.995Z,12.3
2019-04-14T09:07:36.790Z,12.5
2019-04-14T09:12:59.530Z,12.6
2019-04-14T09:18:23.365Z,12.6
2019-04-14T09:23:46.102Z,12.2
2019-04-14T09:29:09.829Z,12.6
2019-04-14T09:34:33.621Z,11.4
2019-04-14T09:39:56.473Z,11.9
2019-04-14T09:45:19.085Z,11.7
2019-04-14T09:50:41.853Z,11.5
2019-04-14T09:56:04.512Z,11.6
2019-04-14T10:01:27.378Z,12.4
2019-04-14T10:06:50.131Z,11.9
2019-04-14T10:12:12.780Z,12.3
2019-04-14T10:17:35.564Z,11.7
2019-04-14T10:22:58.207Z,12.2
2019-04-14T10:28:20.960Z,12.6
2019-04-14T10:33:43.714Z,12.6
2019-04-14T10:39:06.377Z,13.1
2019-04-14T10:44:29.029Z,12.8
2019-04-14T10:49:51.690Z,13.9
2019-04-14T10:55:14.477Z,13.2
2019-04-14T11:00:37.574Z,13.4
2019-04-14T11:06:00.245Z,13.6
2019-04-14T11:11:23.053Z,13.9
2019-04-14T11:16:45.697Z,13
2019-04-14T11:22:08.411Z,12.9
2019-04-14T11:27:31.134Z,13.1
2019-04-14T11:32:53.807Z,13.1
2019-04-14T11:38:16.553Z,12.7
2019-04-14T11:43:39.209Z,12.8
2019-04-14T11:49:01.946Z,12.6
2019-04-14T11:54:25.018Z,12.5
2019-04-14T11:59:47.733Z,13.2
2019-04-14T12:05:10.440Z,12.7
2019-04-14T12:10:33.950Z,13.9
2019-04-14T12:15:56.720Z,12.9
2019-04-14T12:21:19.457Z,12.9
2019-04-14T12:26:42.548Z,13.2
2019-04-14T12:32:06.270Z,13.6
2019-04-14T12:37:29.471Z,13.1
2019-04-14T12:42:52.145Z,13.2
2019-04-14T12:48:14.947Z,13
2019-04-14T12:53:37.620Z,13.3
2019-04-14T12:59:00.291Z,13
2019-04-14T13:04:22.982Z,13.5
2019-04-14T13:09:45.663Z,12.9
2019-04-14T13:15:08.954Z,13.4
2019-04-14T13:20:31.663Z,13.3
2019-04-14T13:25:54.333Z,13.3
2019-04-14T13:31:16.995Z,14.2
2019-04-14T13:36:39.705Z,13.3
2019-04-14T13:42:02.425Z,14
2019-04-14T13:47:25.728Z,13.5
2019-04-14T13:52:48.450Z,13.2
2019-04-14T13:58:11.119Z,13
2019-04-14T14:03:33.746Z,12.8
2019-04-14T14:08:56.390Z,12.5
2019-04-14T14:14:19.038Z,12
2019-04-14T14:19:42.515Z,11.1
2019-04-14T14:25:05.135Z,11.5
2019-04-14T14:30:27.850Z,11.8
2019-04-14T14:35:50.507Z,11
2019-04-14T14:41:13.225Z,11.3
2019-04-14T14:46:38.636Z,10.8
2019-04-14T14:52:01.374Z,11
2019-04-14T14:57:24.081Z,10.4
2019-04-14T15:02:47.715Z,11.3
2019-04-14T15:08:10.465Z,10.7
2019-04-14T15:13:33.839Z,10.9
2019-04-14T15:18:56.561Z,10.9
2019-04-14T15:24:19.626Z,10.7
2019-04-14T15:29:42.298Z,11.3
2019-04-14T15:35:05.095Z,10.6
2019-04-14T15:40:27.822Z,11.1
2019-04-14T15:45:50.532Z,11.6
2019-04-14T15:51:13.264Z,11.6
2019-04-14T15:56:36.012Z,12
2019-04-14T16:01:58.775Z,11.9
2019-04-14T16:07:21.567Z,11.1
2019-04-14T16:12:44.230Z,11.2
2019-04-14T16:18:07.986Z,10.3
2019-04-14T16:23:30.692Z,10.4
2019-04-14T16:28:53.361Z,9.5
2019-04-14T16:34:16.095Z,9.5
2019-04-14T16:39:38.690Z,9.3
2019-04-14T16:45:02.935Z,8.7
2019-04-14T16:50:26.158Z,8.7
2019-04-14T16:55:48.804Z,8.7
2019-04-14T17:01:11.414Z,8.3
2019-04-14T17:06:34.937Z,8.3
2019-04-14T17:11:59.286Z,8.2
2019-04-14T17:17:21.183Z,8.8
2019-04-14T17:22:43.887Z,8.3
2019-04-14T17:28:06.498Z,7.9
2019-04-14T17:33:30.006Z,8.2
2019-04-14T17:38:52.651Z,7.2
2019-04-14T17:44:16.309Z,8.8
2019-04-14T17:49:38.917Z,7.9
2019-04-14T17:55:01.603Z,8.3
2019-04-14T18:00:26.127Z,8
2019-04-14T18:05:48.789Z,8.1
2019-04-14T18:11:11.440Z,8.5
2019-04-14T18:16:34.300Z,8.7
2019-04-14T18:21:56.965Z,11.2
2019-04-14T18:27:20.434Z,8.7
2019-04-14T18:32:44.191Z,8
2019-04-14T18:38:06.821Z,8.9
2019-04-14T18:43:29.585Z,8.3
2019-04-14T18:48:52.351Z,8.3
2019-04-14T18:54:16.078Z,8
2019-04-14T18:59:38.828Z,8
2019-04-14T19:05:01.726Z,7.7
2019-04-14T19:10:24.412Z,8.1
2019-04-14T19:15:50.601Z,8.6
2019-04-14T19:21:14.012Z,9
2019-04-14T19:26:36.765Z,9.3
2019-04-14T19:31:59.477Z,9.3
2019-04-14T19:37:22.291Z,10.4
2019-04-14T19:42:45.817Z,10.2
2019-04-14T19:48:08.518Z,11.2
2019-04-14T19:53:31.347Z,11
2019-04-14T19:58:54.013Z,11.3
2019-04-14T20:04:16.706Z,12.6
2019-04-14T20:09:40.943Z,13.4
2019-04-14T20:15:04.038Z,14
2019-04-14T20:20:26.873Z,14.4
2019-04-14T20:25:49.549Z,14.4
2019-04-14T20:31:12.340Z,14.9
2019-04-14T20:36:35.066Z,15.1
2019-04-14T20:41:57.848Z,14.8
2019-04-14T20:47:20.589Z,15
2019-04-14T20:52:43.373Z,15
2019-04-14T20:58:06.073Z,15.3
2019-04-14T21:03:28.784Z,15.6
2019-04-14T21:08:51.573Z,15.9
2019-04-14T21:14:14.222Z,15.5
2019-04-14T21:19:36.972Z,16.9
2019-04-14T21:24:59.744Z,16.299999
2019-04-14T21:30:22.410Z,16.700001
2019-04-14T21:35:45.855Z,17
2019-04-14T21:41:08.539Z,17.4
2019-04-14T21:46:32.899Z,16.9
2019-04-14T21:51:55.671Z,18.200001
2019-04-14T21:57:19.464Z,18.200001
2019-04-14T22:02:42.170Z,18.9
2019-04-14T22:08:04.915Z,18.299999
2019-04-14T22:13:27.649Z,19.1
2019-04-14T22:18:50.315Z,18.9
2019-04-14T22:24:13.023Z,17.9
2019-04-14T22:29:35.729Z,18.1
2019-04-14T22:34:58.401Z,18.799999
2019-04-14T22:40:21.164Z,17.6
2019-04-14T22:45:44.801Z,18.5
2019-04-14T22:51:07.451Z,19
2019-04-14T22:56:38.916Z,18.700001
2019-04-14T23:01:53.889Z,19.5
2019-04-14T23:07:16.674Z,19.6
2019-04-14T23:12:39.324Z,19.5
2019-04-14T23:18:02.098Z,18.799999
2019-04-14T23:23:25.452Z,19.6
2019-04-14T23:28:48.280Z,20.299999
2019-04-14T23:34:10.995Z,20.200001
2019-04-14T23:39:33.685Z,20.4
2019-04-14T23:44:56.344Z,20.700001
2019-04-14T23:50:19.072Z,21.4
2019-04-14T23:55:42.426Z,21.799999
